Latest Weather Observations for Khancoban

IDN60801

Issued at 5:22 am EST Sunday 22 September 2019 (issued every 10 minutes, with the page automatically refreshed every 10 minutes)

About weather observations | Map of weather stations | Latest weather observations for NSW | Other Formats
Station Details ID: 072162 Name: KHANCOBAN AWS Lat: -36.23 Lon: 148.14 Height: 339.3 m
Data from the previous 72 hours. | See also: Recent months at Khancoban
Date/Time
EST
Temp
°C
App
Temp
°C
Dew
Point
°C
Rel
Hum
%
Delta-T
°C
Wind Press
QNH
hPa
Press
MSL
hPa
Rain since
9am
mm
Dir  Spd
km/h
Gust
km/h
Spd
kts
Gust
kts
22/05:00am 7.4 5.1 7.4 100 0.0 NNE 9 11 5 6 1020.6 1020.8 6.8
22/04:30am 6.9 5.4 6.8 99 0.0 WNW 4 7 2 4 1020.3 1020.5 6.8
22/04:00am 7.5 6.5 7.5 100 0.0 NNE 2 7 1 4 1020.0 1020.1 6.8
22/03:30am 7.5 6.9 7.5 100 0.0 CALM 0 0 0 0 1019.8 1019.9 6.8
22/03:00am 7.7 6.0 7.7 100 0.0 E 6 9 3 5 1019.7 1019.8 6.8
22/02:30am 8.0 7.2 8.0 100 0.0 SSW 2 7 1 4 1019.7 1019.8 6.8
22/02:00am 7.9 7.1 6.7 92 0.6 CALM 0 0 0 0 1019.6 1019.7 6.8
22/01:30am 9.6 8.1 9.0 96 0.3 SSW 7 11 4 6 1019.8 1019.9 6.8
22/01:00am 9.8 8.9 7.7 87 1.0 S 2 7 1 4 1020.2 1020.4 6.8
22/12:30am 10.9 9.4 8.5 85 1.2 ENE 6 11 3 6 1020.1 1020.2 6.8
22/12:00am 11.8 10.1 8.3 79 1.7 NE 7 9 4 5 1020.1 1020.2 6.8
 
Date/Time
EST
Temp
°C
App
Temp
°C
Dew
Point
°C
Rel
Hum
%
Delta-T
°C
Wind Press
QNH
hPa
Press
MSL
hPa
Rain since
9am
mm
Dir  Spd
km/h
Gust
km/h
Spd
kts
Gust
kts
21/11:30pm 11.6 11.0 9.0 84 1.3 NNE 2 7 1 4 1019.9 1020.0 6.8
21/11:00pm 12.2 11.5 9.9 86 1.2 SSE 4 9 2 5 1019.7 1019.8 6.8
21/10:30pm 12.0 12.4 11.1 94 0.5 CALM 0 0 0 0 1019.4 1019.5 6.8
21/10:00pm 12.9 12.0 10.8 87 1.1 ESE 6 9 3 5 1019.2 1019.3 6.8
21/09:30pm 13.4 13.4 11.1 86 1.2 S 2 7 1 4 1019.0 1019.1 6.8
21/09:00pm 13.2 12.5 11.3 88 1.0 N 6 9 3 5 1018.9 1019.0 6.8
21/08:30pm 13.7 13.1 12.3 91 0.8 NE 7 9 4 5 1018.5 1018.6 6.8
21/08:00pm 13.1 13.4 12.3 95 0.4 S 2 7 1 4 1018.0 1018.2 6.8
21/07:30pm 13.4 13.7 12.1 92 0.7 S 2 7 1 4 1017.7 1017.9 6.8
21/07:00pm 13.7 13.0 11.9 89 1.0 SE 7 11 4 6 1017.4 1017.5 6.8
21/06:30pm 14.4 13.3 11.9 85 1.4 N 9 13 5 7 1017.1 1017.2 6.8
21/06:00pm 14.7 13.1 11.7 82 1.6 NNW 11 13 6 7 1016.5 1016.6 6.6
21/05:30pm 15.6 11.8 11.0 74 2.5 W 22 35 12 19 1015.6 1015.7 6.0
21/05:00pm 16.4 14.8 12.8 79 2.0 W 13 22 7 12 1014.6 1014.7 5.8
21/04:30pm 17.2 14.3 12.3 73 2.7 NNE 19 28 10 15 1013.7 1013.8 5.8
21/04:00pm 17.2 14.4 13.1 77 2.3 NNE 20 26 11 14 1013.4 1013.5 5.8
21/03:30pm 16.5 13.9 13.8 84 1.6 N 20 28 11 15 1013.2 1013.3 5.8
21/03:18pm 16.1 11.3 13.9 87 1.3 N 32 50 17 27 1013.1 1013.2 5.8
21/03:00pm 15.9 12.1 13.7 87 1.3 NW 26 44 14 24 1012.8 1012.9 4.0
21/02:30pm 19.1 13.5 11.4 61 4.3 N 32 50 17 27 1011.8 1011.9 1.4
21/02:00pm 19.4 13.9 11.7 61 4.3 N 32 52 17 28 1011.8 1011.9 1.4
21/01:33pm 19.4 14.4 10.9 58 4.7 NNW 28 46 15 25 1012.5 1012.5 1.2
21/01:30pm 19.1 14.1 10.9 59 4.5 NNW 28 44 15 24 1012.6 1012.6 1.2
21/01:00pm 19.4 14.5 11.4 60 4.5 N 28 46 15 25 1012.7 1012.8 1.2
21/12:30pm 19.2 14.6 12.2 64 4.0 NNE 28 56 15 30 1013.1 1013.2 1.2
21/12:20pm 18.1 13.2 11.4 65 3.7 N 28 48 15 26 1013.4 1013.5 1.2
21/12:00pm 17.3 12.7 12.2 72 2.9 N 28 43 15 23 1014.4 1014.5 1.2
21/11:53am 17.2 14.2 12.7 75 2.5 NNE 20 43 11 23 1014.9 1015.0 1.2
21/11:30am 17.6 15.0 12.1 70 3.1 N 17 22 9 12 1015.5 1015.6 0.8
21/11:00am 18.8 14.2 11.1 61 4.3 N 26 41 14 22 1014.8 1014.9 0.2
21/10:30am 19.0 12.6 10.8 59 4.5 N 35 61 19 33 1014.4 1014.5 0.0
21/10:17am 20.9 13.7 10.4 51 5.8 N 39 56 21 30 1014.5 1014.6 0.0
21/10:13am 20.8 13.9 10.3 51 5.8 N 37 52 20 28 1014.5 1014.6 0.0
21/10:00am 21.0 12.8 9.6 48 6.2 NNW 43 72 23 39 1014.6 1014.7 0.0
21/09:56am 21.0 13.6 9.9 49 6.1 NW 39 69 21 37 1014.4 1014.5 0.0
21/09:32am 21.9 17.2 9.4 45 6.8 NNW 24 48 13 26 1013.4 1013.5 0.0
21/09:30am 21.4 16.4 9.6 47 6.4 NW 26 48 14 26 1013.9 1014.0 0.0
21/09:00am 19.9 15.2 10.6 55 5.1 WNW 26 41 14 22 1013.9 1014.0 0.0
21/08:30am 20.8 17.2 9.7 49 6.0 NNW 19 39 10 21 1014.7 1014.8 0.0
21/08:00am 20.3 16.7 10.4 53 5.4 NW 20 32 11 17 1014.8 1014.9 0.0
21/07:30am 20.1 16.5 10.5 54 5.3 WNW 20 33 11 18 1014.8 1014.9 0.0
21/07:04am 20.5 15.7 10.3 52 5.6 NNW 26 46 14 25 1014.5 1014.6 0.0
21/07:00am 20.1 16.4 10.2 53 5.4 NNW 20 33 11 18 1014.5 1014.6 0.0
21/06:30am 17.6 16.5 10.7 64 3.8 NNW 7 15 4 8 1014.6 1014.7 0.0
21/06:00am 15.1 13.8 11.3 78 2.1 NW 9 15 5 8 1014.5 1014.6 0.0
21/05:30am 11.6 10.4 10.3 92 0.7 N 7 17 4 9 1014.2 1014.3 0.0
21/05:00am 10.5 9.9 10.3 99 0.1 ENE 4 9 2 5 1014.3 1014.4 0.0
21/04:30am 10.3 9.1 9.7 96 0.3 E 6 11 3 6 1014.0 1014.1 0.0
21/04:00am 11.2 11.0 10.6 96 0.3 NE 2 9 1 5 1014.2 1014.3 0.0
21/03:30am 10.5 9.3 9.4 93 0.6 S 6 11 3 6 1014.7 1014.8 0.0
21/03:00am 10.7 10.2 9.3 91 0.7 NE 2 7 1 4 1014.9 1015.0 0.0
21/02:30am 11.2 10.2 10.4 95 0.4 NE 6 9 3 5 1015.2 1015.3 0.0
21/02:00am 10.5 9.6 9.4 93 0.6 S 4 7 2 4 1015.6 1015.7 0.0
21/01:30am 11.0 11.0 9.9 93 0.6 CALM 0 0 0 0 1016.0 1016.1 0.0
21/01:00am 11.2 10.1 9.8 91 0.7 SSW 6 11 3 6 1016.4 1016.5 0.0
21/12:30am 11.8 11.2 10.5 92 0.7 NE 4 11 2 6 1016.8 1016.9 0.0
21/12:00am 11.5 10.5 10.4 93 0.6 E 6 9 3 5 1017.2 1017.3 0.0
 
Date/Time
EST
Temp
°C
App
Temp
°C
Dew
Point
°C
Rel
Hum
%
Delta-T
°C
Wind Press
QNH
hPa
Press
MSL
hPa
Rain since
9am
mm
Dir  Spd
km/h
Gust
km/h
Spd
kts
Gust
kts
20/11:30pm 11.9 11.2 10.0 88 1.0 NNE 4 9 2 5 1017.7 1017.9 0.0
20/11:00pm 12.3 11.3 10.4 88 1.0 NNE 6 9 3 5 1018.1 1018.3 0.0
20/10:30pm 13.0 12.2 10.9 87 1.1 NNE 6 11 3 6 1018.2 1018.4 0.0
20/10:00pm 12.3 11.7 10.5 89 0.9 ENE 4 7 2 4 1018.5 1018.6 0.0
20/09:30pm 12.7 11.8 10.6 87 1.1 NE 6 9 3 5 1018.8 1018.9 0.0
20/09:00pm 13.0 13.3 10.9 87 1.1 CALM 0 0 0 0 1019.0 1019.1 0.0
20/08:30pm 12.9 11.9 10.4 85 1.3 NE 6 9 3 5 1018.9 1019.0 0.0
20/08:00pm 13.3 12.2 10.1 81 1.7 S 6 9 3 5 1018.9 1019.0 0.0
20/07:30pm 15.5 15.6 11.5 77 2.2 NW 2 6 1 3 1018.8 1018.9 0.0
20/07:00pm 15.6 15.2 11.0 74 2.5 WNW 4 9 2 5 1018.2 1018.4 0.0
20/06:30pm 16.6 16.6 11.3 71 2.9 S 2 9 1 5 1018.0 1018.2 0.0
20/06:00pm 17.9 17.5 11.2 65 3.7 E 4 9 2 5 1018.0 1018.2 0.0
20/05:30pm 21.9 22.0 10.1 47 6.5 CALM 0 0 0 0 1018.1 1018.3 0.0
20/05:00pm 22.9 21.9 10.3 45 7.0 NW 6 9 3 5 1018.2 1018.4 0.0
20/04:30pm 23.6 23.0 11.6 47 6.9 WNW 6 11 3 6 1018.2 1018.4 0.0
20/04:00pm 23.6 22.2 11.0 45 7.1 WNW 9 13 5 7 1018.4 1018.5 0.0
20/03:30pm 23.3 22.0 11.4 47 6.8 WNW 9 13 5 7 1018.4 1018.5 0.0
20/03:00pm 23.5 22.3 11.5 47 6.8 W 9 15 5 8 1018.7 1018.8 0.0
20/02:30pm 23.7 22.7 12.4 49 6.6 WNW 9 15 5 8 1019.3 1019.4 0.0
20/02:00pm 23.1 21.6 13.0 53 5.9 WNW 13 19 7 10 1019.9 1020.0 0.0
20/01:30pm 22.7 21.2 12.0 50 6.1 NW 11 15 6 8 1020.4 1020.6 0.0
20/01:00pm 22.5 21.6 11.3 49 6.3 SSW 7 13 4 7 1020.8 1021.0 0.0
20/12:30pm 21.5 20.6 11.5 53 5.6 WNW 7 13 4 7 1021.3 1021.5 0.0
20/12:00pm 21.2 19.2 11.5 54 5.5 NW 13 15 7 8 1021.8 1021.9 0.0
20/11:30am 20.4 19.8 10.5 53 5.5 WNW 4 9 2 5 1022.1 1022.2 0.0
20/11:00am 19.4 18.8 10.4 56 4.9 WNW 4 9 2 5 1022.6 1022.7 0.0
20/10:30am 18.7 19.0 12.2 66 3.7 WNW 2 7 1 4 1023.2 1023.4 0.0
20/10:00am 17.0 17.2 10.6 66 3.5 CALM 0 7 0 4 1023.8 1024.0 0.0
20/09:30am 16.0 16.0 9.9 67 3.2 CALM 0 0 0 0 1024.2 1024.4 0.0
20/09:00am 14.4 13.6 9.8 74 2.4 NW 4 7 2 4 1024.6 1024.7 0.0
20/08:30am 13.1 13.1 9.9 81 1.7 CALM 0 0 0 0 1024.7 1024.8 0.0
20/08:00am 11.0 10.6 9.6 91 0.7 NNE 2 7 1 4 1024.8 1024.9 0.0
20/07:30am 9.3 9.2 9.3 100 0.0 CALM 0 0 0 0 1024.9 1025.0 0.0
20/07:00am 7.2 6.6 7.2 100 0.0 CALM 0 0 0 0 1025.0 1025.1 0.0
20/06:30am 6.8 5.7 6.8 100 0.0 ENE 2 6 1 3 1025.0 1025.1 0.0
20/06:00am 6.8 6.1 6.8 100 0.0 CALM 0 0 0 0 1024.7 1024.8 0.0
20/05:30am 6.8 5.3 6.8 100 0.0 NE 4 7 2 4 1024.3 1024.5 0.0
20/05:00am 6.4 4.4 6.4 100 0.0 S 6 9 3 5 1023.8 1024.0 0.0
20/04:30am 7.8 7.3 7.8 100 0.0 CALM 0 0 0 0 1023.7 1023.9 0.0
20/04:00am 7.4 6.8 7.4 100 0.0 CALM 0 0 0 0 1023.5 1023.7 0.0
20/03:30am 8.4 8.0 8.4 100 0.0 CALM 0 0 0 0 1023.5 1023.7 0.0
20/03:00am 8.5 8.2 8.5 100 0.0 CALM 0 0 0 0 1023.4 1023.6 0.0
20/02:30am 7.9 7.4 7.9 100 0.0 CALM 0 0 0 0 1023.4 1023.6 0.0
20/02:00am 8.3 7.2 8.3 100 0.0 SE 4 7 2 4 1023.5 1023.7 0.0
20/01:30am 8.8 7.8 8.8 100 0.0 NNW 4 7 2 4 1023.7 1023.9 0.0
20/01:00am 8.8 7.8 8.7 99 0.0 SSE 4 6 2 3 1023.8 1024.0 0.0
20/12:30am 9.4 9.1 8.8 96 0.3 CALM 0 0 0 0 1023.9 1024.1 0.0
20/12:00am 9.6 9.4 9.0 96 0.3 CALM 0 0 0 0 1023.8 1024.0 0.0
 
Date/Time
EST
Temp
°C
App
Temp
°C
Dew
Point
°C
Rel
Hum
%
Delta-T
°C
Wind Press
QNH
hPa
Press
MSL
hPa
Rain since
9am
mm
Dir  Spd
km/h
Gust
km/h
Spd
kts
Gust
kts
19/11:30pm 10.4 10.3 9.6 95 0.4 CALM 0 0 0 0 1023.6 1023.8 0.0
19/11:00pm 9.9 9.4 8.0 88 0.9 CALM 0 0 0 0 1023.6 1023.8 0.0
19/10:30pm 10.4 10.1 8.7 89 0.9 CALM 0 6 0 3 1023.9 1024.1 0.0
19/10:00pm 11.0 9.7 9.3 89 0.9 SSE 6 7 3 4 1023.6 1023.8 0.0
19/09:30pm 11.9 11.3 8.9 82 1.5 SE 2 7 1 4 1023.8 1024.0 0.0
19/09:00pm 12.3 11.4 9.1 81 1.6 S 4 9 2 5 1024.0 1024.2 0.0
19/08:30pm 13.3 12.1 9.5 78 2.0 SSE 6 9 3 5 1023.9 1024.1 0.0
19/08:00pm 14.5 13.5 10.3 76 2.2 W 6 9 3 5 1023.7 1023.9 0.0
19/07:30pm 14.9 13.8 9.9 72 2.6 ENE 6 9 3 5 1023.3 1023.5 0.0
19/07:00pm 17.9 14.5 9.3 57 4.6 NE 17 22 9 12 1022.8 1023.0 0.0
19/06:30pm 18.3 18.6 12.3 68 3.4 ESE 2 7 1 4 1022.6 1022.7 0.0
19/06:00pm 19.1 19.7 13.1 68 3.4 NE 2 9 1 5 1022.2 1022.3 0.0
19/05:30pm 20.3 19.2 12.0 59 4.7 NNW 9 11 5 6 1021.9 1022.0 0.0
19/05:00pm 21.6 21.3 13.2 59 4.9 WNW 7 9 4 5 1021.8 1021.9 0.0
19/04:30pm 21.7 20.6 12.0 54 5.5 WNW 9 13 5 7 1021.7 1021.8 0.0
19/04:00pm 21.9 20.8 11.9 53 5.7 WNW 9 15 5 8 1021.5 1021.6 0.0
19/03:30pm 22.5 22.1 13.0 55 5.5 WNW 7 9 4 5 1021.5 1021.6 0.0
19/03:00pm 21.9 20.4 10.4 48 6.4 WNW 9 13 5 7 1021.8 1021.9 0.0
19/02:30pm 21.8 20.9 10.6 49 6.2 NW 6 11 3 6 1022.0 1022.1 0.0
19/02:00pm 21.2 20.9 10.1 49 6.1 WNW 2 9 1 5 1022.4 1022.5 0.0
19/01:30pm 21.2 20.9 12.6 58 4.9 NW 6 11 3 6 1022.9 1023.1 0.0
19/01:00pm 20.1 17.6 9.7 51 5.6 NW 13 17 7 9 1023.3 1023.5 0.0
19/12:30pm 19.7 19.9 10.7 56 5.0 CALM 0 0 0 0 1023.7 1023.9 0.0
19/12:00pm 19.0 17.6 8.9 52 5.3 NNW 6 9 3 5 1024.2 1024.4 0.0
19/11:30am 18.2 17.1 10.1 59 4.4 WNW 6 9 3 5 1024.8 1024.9 0.0
19/11:00am 16.7 16.4 8.7 59 4.2 CALM 0 0 0 0 1025.3 1025.5 0.0
19/10:30am 16.1 15.7 8.3 60 4.0 CALM 0 0 0 0 1025.8 1026.0 0.0
19/10:00am 14.2 13.5 8.6 69 2.9 WNW 2 7 1 4 1026.2 1026.4 0.0
19/09:30am 13.0 12.4 7.5 69 2.7 CALM 0 0 0 0 1026.5 1026.7 0.0
19/09:00am 11.1 10.3 6.6 74 2.2 CALM 0 0 0 0 1026.8 1027.0 0.0
19/08:30am 9.8 9.2 7.2 84 1.3 CALM 0 0 0 0 1026.8 1027.0 0.0
19/08:00am 8.2 7.4 6.3 88 0.9 CALM 0 0 0 0 1027.1 1027.3 0.0
19/07:30am 6.7 5.9 6.6 99 0.0 CALM 0 0 0 0 1026.9 1027.1 0.0
19/07:00am 5.1 4.0 5.1 100 0.0 CALM 0 0 0 0 1026.8 1027.0 0.0
19/06:30am 4.3 3.0 4.3 100 0.0 CALM 0 0 0 0 1026.7 1026.9 0.0
19/06:00am 3.8 2.4 3.8 100 0.0 CALM 0 0 0 0 1026.6 1026.8 0.0
19/05:30am 4.3 3.0 4.3 100 0.0 CALM 0 0 0 0 1026.3 1026.5 0.0

Other formats

Comma delimited format used in spreadsheet applications
http://www.bom.gov.au/fwo/IDN60801/IDN60801.94919.axf

JavaScript Object Notation format (JSON) in row-major order
http://www.bom.gov.au/fwo/IDN60801/IDN60801.94919.json

Data quality

Most of these data are generated automatically and are frequently updated. Quality checks on data are not normally performed. It is possible for incorrect values to appear. Refer to information at About Latest Weather Observations and please check the disclaimer before using these data.